createdAt,value
2018-11-20T00:01:00.132Z,15.03
2018-11-20T00:03:43.256Z,14.67
2018-11-20T00:06:28.715Z,14.43
2018-11-20T00:09:15.684Z,13.03
2018-11-20T00:12:02.505Z,13.87
2018-11-20T00:14:59.519Z,14.83
2018-11-20T00:17:48.172Z,14.47
2018-11-20T00:20:43.205Z,12.70
2018-11-20T00:23:23.294Z,13.63
2018-11-20T00:26:02.850Z,13.20
2018-11-20T00:28:45.855Z,14.87
2018-11-20T00:31:32.008Z,13.90
2018-11-20T00:34:21.077Z,12.80
2018-11-20T00:37:04.626Z,13.33
2018-11-20T00:39:51.948Z,14.03
2018-11-20T00:42:43.435Z,14.40
2018-11-20T00:45:30.613Z,14.17
2018-11-20T00:48:11.154Z,14.87
2018-11-20T00:51:05.320Z,15.17
2018-11-20T00:53:56.859Z,13.43
2018-11-20T00:56:54.736Z,12.20
2018-11-20T00:59:56.391Z,12.20
2018-11-20T01:03:00.082Z,13.50
2018-11-20T01:05:48.615Z,12.53
2018-11-20T01:08:38.231Z,11.70
2018-11-20T01:11:41.956Z,12.83
2018-11-20T01:14:29.478Z,12.53
2018-11-20T01:17:16.429Z,11.50
2018-11-20T01:20:04.621Z,12.80
2018-11-20T01:23:07.952Z,12.63
2018-11-20T01:25:51.197Z,13.37
2018-11-20T01:28:48.964Z,14.00
2018-11-20T01:31:43.618Z,12.83
2018-11-20T01:34:41.222Z,12.53
2018-11-20T01:37:35.920Z,12.97
2018-11-20T01:40:18.719Z,13.20
2018-11-20T01:43:05.928Z,13.37
2018-11-20T01:46:03.231Z,13.60
2018-11-20T01:48:46.641Z,13.10
2018-11-20T01:51:33.724Z,13.03
2018-11-20T01:54:31.320Z,13.20
2018-11-20T01:57:28.546Z,13.20
2018-11-20T02:00:31.138Z,12.90
2018-11-20T02:03:19.462Z,14.27
2018-11-20T02:06:07.083Z,12.73
2018-11-20T02:08:58.331Z,13.73
2018-11-20T02:11:47.140Z,13.20
2018-11-20T02:14:46.190Z,13.70
2018-11-20T02:17:36.872Z,12.57
2018-11-20T02:20:17.648Z,12.20
2018-11-20T02:23:05.200Z,11.63
2018-11-20T02:26:05.597Z,12.90
2018-11-20T02:28:56.794Z,12.73
2018-11-20T02:31:40.532Z,12.60
2018-11-20T02:34:35.415Z,12.87
2018-11-20T02:37:32.197Z,12.83
2018-11-20T02:40:13.672Z,12.03
2018-11-20T02:43:11.370Z,12.70
2018-11-20T02:45:52.068Z,13.30
2018-11-20T02:48:44.007Z,13.10
2018-11-20T02:51:41.529Z,13.17
2018-11-20T02:54:28.913Z,11.40
2018-11-20T02:57:16.038Z,12.80
2018-11-20T03:00:03.724Z,13.57
2018-11-20T03:02:50.893Z,13.00
2018-11-20T03:05:42.316Z,12.23
2018-11-20T03:08:28.848Z,13.90
2018-11-20T03:11:23.151Z,13.27
2018-11-20T03:14:10.503Z,13.53
2018-11-20T03:17:14.237Z,13.23
2018-11-20T03:19:59.250Z,12.80
2018-11-20T03:22:56.650Z,13.03
2018-11-20T03:26:09.886Z,13.13
2018-11-20T03:29:16.809Z,12.37
2018-11-20T03:32:20.345Z,13.27
2018-11-20T03:35:07.459Z,12.70
2018-11-20T03:37:54.250Z,12.90
2018-11-20T03:40:42.106Z,12.93
2018-11-20T03:43:23.493Z,12.67
2018-11-20T03:46:21.674Z,13.53
2018-11-20T03:49:12.319Z,13.00
2018-11-20T03:51:54.996Z,13.27
2018-11-20T03:54:42.875Z,12.97
2018-11-20T03:57:30.103Z,14.23
2018-11-20T04:00:21.603Z,12.00
2018-11-20T04:03:08.723Z,15.13
2018-11-20T04:06:13.345Z,14.37
2018-11-20T04:09:04.841Z,13.23
2018-11-20T04:12:09.117Z,15.00
2018-11-20T04:15:03.715Z,14.23
2018-11-20T04:18:07.352Z,15.50
2018-11-20T04:20:54.374Z,15.93
2018-11-20T04:23:46.270Z,16.50
2018-11-20T04:26:33.256Z,15.93
2018-11-20T04:29:20.686Z,14.97
2018-11-20T04:32:32.077Z,16.10
2018-11-20T04:35:20.589Z,14.37
2018-11-20T04:38:06.168Z,14.10
2018-11-20T04:40:57.716Z,14.40
2018-11-20T04:43:46.525Z,15.90
2018-11-20T04:46:41.225Z,15.63
2018-11-20T04:49:45.377Z,16.37
2018-11-20T04:52:32.882Z,15.40
2018-11-20T04:55:20.212Z,14.80
2018-11-20T04:58:07.344Z,15.70
2018-11-20T05:00:54.442Z,14.70
2018-11-20T05:03:42.040Z,14.50
2018-11-20T05:06:30.917Z,15.97
2018-11-20T05:09:34.540Z,16.30
2018-11-20T05:12:31.672Z,15.47
2018-11-20T05:15:20.614Z,14.67
2018-11-20T05:18:09.334Z,15.67
2018-11-20T05:20:54.399Z,15.23
2018-11-20T05:24:02.709Z,14.90
2018-11-20T05:26:43.192Z,16.30
2018-11-20T05:29:33.357Z,15.17
2018-11-20T05:32:20.018Z,15.53
2018-11-20T05:35:11.208Z,15.10
2018-11-20T05:38:02.486Z,15.83
2018-11-20T05:40:50.104Z,17.13
2018-11-20T05:43:48.084Z,16.67
2018-11-20T05:46:36.456Z,15.00
2018-11-20T05:49:37.081Z,16.27
2018-11-20T05:52:25.762Z,15.60
2018-11-20T05:55:26.456Z,15.83
2018-11-20T05:58:10.916Z,15.57
2018-11-20T06:00:59.544Z,15.47
2018-11-20T06:04:06.743Z,15.73
2018-11-20T06:06:53.610Z,16.47
2018-11-20T06:09:40.936Z,16.20
2018-11-20T06:12:31.873Z,16.90
2018-11-20T06:15:20.234Z,16.83
2018-11-20T06:19:03.515Z,18.43
2018-11-20T06:21:49.880Z,15.73
2018-11-20T06:24:26.830Z,16.00
2018-11-20T06:27:13.189Z,15.70
2018-11-20T06:30:16.074Z,16.20
2018-11-20T06:33:03.941Z,16.13
2018-11-20T06:35:51.772Z,16.87
2018-11-20T06:38:49.750Z,15.00
2018-11-20T06:41:46.531Z,16.50
2018-11-20T06:44:48.830Z,16.47
2018-11-20T06:47:39.673Z,16.50
2018-11-20T06:50:35.013Z,15.80
2018-11-20T06:53:14.655Z,16.27
2018-11-20T06:56:08.047Z,15.97
2018-11-20T06:59:01.609Z,15.97
2018-11-20T07:01:49.326Z,16.70
2018-11-20T07:04:37.602Z,16.07
2018-11-20T07:07:24.110Z,16.43
2018-11-20T07:10:11.744Z,14.40
2018-11-20T07:13:00.346Z,16.13
2018-11-20T07:15:53.944Z,17.07
2018-11-20T07:18:41.432Z,16.10
2018-11-20T07:21:32.360Z,15.57
2018-11-20T07:24:17.597Z,16.90
2018-11-20T07:27:02.292Z,15.87
2018-11-20T07:29:49.151Z,16.10
2018-11-20T07:32:39.289Z,17.37
2018-11-20T07:35:38.941Z,16.37
2018-11-20T07:38:28.980Z,17.23
2018-11-20T07:41:19.298Z,15.40
2018-11-20T07:44:07.132Z,16.73
2018-11-20T07:47:08.535Z,17.07
2018-11-20T07:50:05.970Z,16.40
2018-11-20T07:52:53.757Z,14.90
2018-11-20T07:55:44.351Z,17.63
2018-11-20T07:58:33.160Z,18.10
2018-11-20T08:01:19.289Z,16.67
2018-11-20T08:04:13.076Z,15.63
2018-11-20T08:07:04.675Z,16.73
2018-11-20T08:09:54.319Z,18.27
2018-11-20T08:12:44.385Z,18.33
2018-11-20T08:15:31.064Z,17.03
2018-11-20T08:18:22.329Z,15.33
2018-11-20T08:21:19.266Z,16.77
2018-11-20T08:24:16.374Z,17.37
2018-11-20T08:27:03.024Z,16.30
2018-11-20T08:30:07.624Z,18.60
2018-11-20T08:33:14.826Z,16.33
2018-11-20T08:36:23.094Z,17.00
2018-11-20T08:39:09.177Z,17.47
2018-11-20T08:42:05.548Z,14.70
2018-11-20T08:44:52.211Z,16.70
2018-11-20T08:47:39.254Z,16.73
2018-11-20T08:50:33.703Z,15.53
2018-11-20T08:53:33.411Z,17.37
2018-11-20T08:56:33.209Z,17.30
2018-11-20T08:59:18.580Z,18.53
2018-11-20T09:02:04.954Z,18.03
2018-11-20T09:04:44.643Z,17.50
2018-11-20T09:07:33.075Z,18.07
2018-11-20T09:10:20.790Z,17.47
2018-11-20T09:13:07.379Z,18.53
2018-11-20T09:16:09.254Z,18.17
2018-11-20T09:19:03.025Z,19.80
2018-11-20T09:21:52.835Z,18.43
2018-11-20T09:25:03.994Z,18.83
2018-11-20T09:27:54.641Z,18.13
2018-11-20T09:30:41.289Z,17.37
2018-11-20T09:33:27.279Z,16.93
2018-11-20T09:36:21.808Z,17.00
2018-11-20T09:39:15.306Z,18.07
2018-11-20T09:42:03.661Z,18.37
2018-11-20T09:45:16.377Z,18.27
2018-11-20T09:48:04.551Z,19.17
2018-11-20T09:50:51.650Z,19.20
2018-11-20T09:53:41.229Z,18.67
2018-11-20T09:56:39.369Z,18.67
2018-11-20T09:59:30.320Z,18.20
2018-11-20T10:02:18.109Z,19.80
2018-11-20T10:05:02.072Z,17.97
2018-11-20T10:07:53.945Z,19.10
2018-11-20T10:10:50.341Z,18.97
2018-11-20T10:13:41.116Z,18.73
2018-11-20T10:16:34.717Z,18.50
2018-11-20T10:19:23.107Z,18.67
2018-11-20T10:22:10.026Z,17.27
2018-11-20T10:25:06.552Z,20.00
2018-11-20T10:28:00.783Z,18.60
2018-11-20T10:31:15.632Z,19.53
2018-11-20T10:34:03.195Z,18.63
2018-11-20T10:36:47.568Z,17.80
2018-11-20T10:39:33.563Z,18.03
2018-11-20T10:42:33.130Z,17.80
2018-11-20T10:45:20.090Z,18.73
2018-11-20T10:48:17.419Z,18.17
2018-11-20T10:51:10.937Z,16.87
2018-11-20T10:54:06.638Z,18.70
2018-11-20T10:56:54.934Z,16.53
2018-11-20T10:59:43.183Z,19.43
2018-11-20T11:02:31.952Z,17.57
2018-11-20T11:05:18.275Z,17.27
2018-11-20T11:08:04.669Z,17.33
2018-11-20T11:11:02.018Z,17.80
2018-11-20T11:13:52.284Z,18.87
2018-11-20T11:16:45.804Z,16.70
2018-11-20T11:19:31.792Z,18.07
2018-11-20T11:22:20.089Z,16.50
2018-11-20T11:25:16.430Z,18.23
2018-11-20T11:28:12.217Z,18.27
2018-11-20T11:30:54.522Z,17.53
2018-11-20T11:33:42.971Z,17.97
2018-11-20T11:36:49.133Z,18.77
2018-11-20T11:39:35.492Z,20.13
2018-11-20T11:42:30.286Z,18.87
2018-11-20T11:45:14.277Z,19.87
2018-11-20T11:48:00.792Z,20.33
2018-11-20T11:51:07.548Z,21.77
2018-11-20T11:53:55.947Z,22.80
2018-11-20T11:56:53.443Z,23.03
2018-11-20T11:59:42.086Z,22.53
2018-11-20T12:05:29.198Z,22.17
2018-11-20T12:08:28.915Z,19.53
2018-11-20T12:11:23.029Z,21.03
2018-11-20T12:14:27.570Z,21.43
2018-11-20T12:17:43.845Z,21.70
2018-11-20T12:20:30.124Z,21.50
2018-11-20T12:23:32.175Z,22.33
2018-11-20T12:26:23.101Z,21.50
2018-11-20T12:29:12.199Z,21.37
2018-11-20T12:31:59.371Z,21.90
2018-11-20T12:34:56.728Z,24.90
2018-11-20T12:37:59.343Z,23.57
2018-11-20T12:40:41.012Z,22.67
2018-11-20T12:43:27.537Z,22.87
2018-11-20T12:46:17.786Z,24.60
2018-11-20T12:49:07.661Z,22.93
2018-11-20T12:52:06.021Z,23.33
2018-11-20T12:54:57.327Z,24.07
2018-11-20T12:57:50.984Z,23.27
2018-11-20T13:00:44.660Z,23.63
2018-11-20T13:03:37.189Z,24.37
2018-11-20T13:06:40.473Z,23.97
2018-11-20T13:09:31.094Z,23.10
2018-11-20T13:12:25.223Z,23.93
2018-11-20T13:15:14.485Z,22.83
2018-11-20T13:18:01.153Z,21.40
2018-11-20T13:20:52.521Z,23.10
2018-11-20T13:23:32.908Z,22.47
2018-11-20T13:26:38.464Z,22.10
2018-11-20T13:29:29.609Z,24.23
2018-11-20T13:32:26.507Z,24.20
2018-11-20T13:35:27.247Z,21.93
2018-11-20T13:38:13.790Z,21.97
2018-11-20T13:41:37.791Z,21.27
2018-11-20T13:44:44.003Z,22.77
2018-11-20T13:47:44.046Z,23.03
2018-11-20T13:50:31.884Z,21.10
2018-11-20T13:53:19.788Z,21.37
2018-11-20T13:56:16.320Z,21.17
2018-11-20T13:59:32.635Z,21.23
2018-11-20T14:02:26.826Z,21.47
2018-11-20T14:05:14.823Z,20.73
2018-11-20T14:08:19.951Z,20.73
2018-11-20T14:11:06.812Z,23.67
2018-11-20T14:13:52.957Z,23.30
2018-11-20T14:16:49.408Z,23.30
2018-11-20T14:19:43.737Z,23.87
2018-11-20T14:22:38.035Z,24.77
2018-11-20T14:25:50.104Z,21.70
2018-11-20T14:31:29.374Z,22.93
2018-11-20T14:34:26.338Z,24.53
2018-11-20T14:37:27.424Z,22.77
2018-11-20T14:40:28.307Z,21.03
2018-11-20T14:43:28.282Z,22.67
2018-11-20T14:46:30.987Z,21.97
2018-11-20T14:49:33.684Z,20.37
2018-11-20T14:52:20.341Z,20.77
2018-11-20T14:55:08.954Z,22.00
2018-11-20T14:57:57.171Z,21.90
2018-11-20T15:00:59.946Z,20.87
2018-11-20T15:03:46.201Z,21.93
2018-11-20T15:06:34.842Z,22.47
2018-11-20T15:09:40.754Z,21.80
2018-11-20T15:12:51.185Z,22.10
2018-11-20T15:15:57.173Z,21.50
2018-11-20T15:18:50.855Z,21.77
2018-11-20T15:21:56.470Z,22.83
2018-11-20T15:24:49.459Z,22.93
2018-11-20T15:28:04.328Z,21.63
2018-11-20T15:30:57.176Z,20.77
2018-11-20T15:33:47.019Z,22.33
2018-11-20T15:36:39.762Z,22.93
2018-11-20T15:39:23.006Z,21.70
2018-11-20T15:42:15.661Z,20.17
2018-11-20T15:45:06.312Z,20.37
2018-11-20T15:48:11.838Z,20.00
2018-11-20T15:50:58.183Z,20.93
2018-11-20T15:53:45.325Z,20.27
2018-11-20T15:56:31.747Z,20.53
2018-11-20T15:59:29.685Z,22.13
2018-11-20T16:02:18.731Z,21.20
2018-11-20T16:05:09.575Z,19.50
2018-11-20T16:07:56.632Z,20.87
2018-11-20T16:10:56.995Z,20.93
2018-11-20T16:14:01.353Z,17.40
2018-11-20T16:16:51.092Z,18.53
2018-11-20T16:19:38.845Z,19.27
2018-11-20T16:22:25.249Z,20.37
2018-11-20T16:25:30.714Z,18.43
2018-11-20T16:28:29.068Z,20.33
2018-11-20T16:31:22.736Z,20.13
2018-11-20T16:34:10.391Z,19.27
2018-11-20T16:37:13.505Z,21.50
2018-11-20T16:40:14.941Z,20.10
2018-11-20T16:43:11.008Z,20.30
2018-11-20T16:46:14.479Z,21.63
2018-11-20T16:48:57.586Z,22.67
2018-11-20T16:51:42.653Z,22.53
2018-11-20T16:54:42.885Z,22.20
2018-11-20T16:57:47.019Z,21.47
2018-11-20T17:00:35.475Z,22.10
2018-11-20T17:03:44.556Z,23.13
2018-11-20T17:06:31.664Z,23.53
2018-11-20T17:09:27.942Z,22.23
2018-11-20T17:12:17.106Z,21.97
2018-11-20T17:15:12.815Z,22.90
2018-11-20T17:18:05.425Z,24.47
2018-11-20T17:20:53.433Z,23.13
2018-11-20T17:23:47.390Z,22.47
2018-11-20T17:26:41.297Z,21.20
2018-11-20T17:29:46.107Z,21.57
2018-11-20T17:32:37.430Z,23.10
2018-11-20T17:35:33.833Z,24.87
2018-11-20T17:38:37.985Z,24.40
2018-11-20T17:41:27.096Z,24.43
2018-11-20T17:44:25.583Z,22.93
2018-11-20T17:47:28.077Z,23.50
2018-11-20T17:50:21.162Z,25.20
2018-11-20T17:53:16.651Z,24.23
2018-11-20T17:56:13.673Z,25.33
2018-11-20T17:59:01.011Z,25.50
2018-11-20T18:01:47.285Z,26.57
2018-11-20T18:04:29.581Z,25.03
2018-11-20T18:07:26.237Z,25.40
2018-11-20T18:10:31.307Z,24.73
2018-11-20T18:13:38.118Z,25.80
2018-11-20T18:16:20.014Z,27.13
2018-11-20T18:19:28.280Z,26.60
2018-11-20T18:22:36.622Z,28.23
2018-11-20T18:25:26.701Z,28.17
2018-11-20T18:28:20.242Z,30.03
2018-11-20T18:31:20.456Z,27.77
2018-11-20T18:34:06.414Z,27.47
2018-11-20T18:37:12.125Z,28.73
2018-11-20T18:40:21.349Z,29.57
2018-11-20T18:43:16.336Z,25.60
2018-11-20T18:46:01.226Z,27.97
2018-11-20T18:48:58.207Z,28.50
2018-11-20T18:52:05.849Z,28.93
2018-11-20T18:55:33.770Z,27.93
2018-11-20T18:58:28.787Z,28.07
2018-11-20T19:01:15.389Z,30.10
2018-11-20T19:04:08.238Z,29.40
2018-11-20T19:07:26.279Z,27.97
2018-11-20T19:10:12.112Z,28.00
2018-11-20T19:12:59.164Z,27.30
2018-11-20T19:15:55.177Z,27.33
2018-11-20T19:18:52.291Z,29.30
2018-11-20T19:21:55.824Z,30.10
2018-11-20T19:24:55.632Z,30.20
2018-11-20T19:27:58.286Z,29.17
2018-11-20T19:30:58.646Z,29.70
2018-11-20T19:33:43.086Z,28.67
2018-11-20T19:36:37.243Z,30.27
2018-11-20T19:39:26.350Z,30.37
2018-11-20T19:42:35.422Z,29.80
2018-11-20T19:45:23.266Z,27.03
2018-11-20T19:48:26.142Z,27.23
2018-11-20T19:51:10.647Z,28.77
2018-11-20T19:54:08.180Z,28.17
2018-11-20T19:56:55.200Z,29.27
2018-11-20T19:59:42.935Z,29.13
2018-11-20T20:02:36.576Z,29.20
2018-11-20T20:05:30.695Z,28.83
2018-11-20T20:08:17.080Z,27.83
2018-11-20T20:11:08.793Z,28.37
2018-11-20T20:13:55.466Z,30.03
2018-11-20T20:16:51.860Z,30.40
2018-11-20T20:19:39.099Z,31.33
2018-11-20T20:22:34.201Z,29.20
2018-11-20T20:25:26.049Z,29.47
2018-11-20T20:28:20.024Z,29.07
2018-11-20T20:31:11.719Z,28.80
2018-11-20T20:33:57.584Z,32.10
2018-11-20T20:36:56.779Z,30.03
2018-11-20T20:39:44.041Z,32.07
2018-11-20T20:42:37.142Z,29.67
2018-11-20T20:45:23.375Z,30.53
2018-11-20T20:48:20.092Z,29.20
2018-11-20T20:51:06.657Z,30.73
2018-11-20T20:54:18.659Z,30.30
2018-11-20T20:57:14.699Z,31.77
2018-11-20T21:00:12.716Z,29.63
2018-11-20T21:03:09.253Z,30.57
2018-11-20T21:06:00.602Z,29.93
2018-11-20T21:09:00.512Z,29.27
2018-11-20T21:12:15.751Z,30.50
2018-11-20T21:15:02.775Z,30.17
2018-11-20T21:18:11.963Z,28.57
2018-11-20T21:21:00.185Z,28.17
2018-11-20T21:23:52.562Z,29.13
2018-11-20T21:26:57.442Z,31.97
2018-11-20T21:29:49.730Z,30.80
2018-11-20T21:32:39.065Z,30.23
2018-11-20T21:35:27.927Z,29.97
2018-11-20T21:38:43.632Z,30.67
2018-11-20T21:41:51.371Z,29.30
2018-11-20T21:44:38.813Z,29.90
2018-11-20T21:47:24.286Z,30.40
2018-11-20T21:50:23.622Z,31.13
2018-11-20T21:53:32.522Z,31.00
2018-11-20T21:56:19.770Z,29.10
2018-11-20T21:59:14.224Z,31.23
2018-11-20T22:02:04.348Z,29.07
2018-11-20T22:05:05.137Z,29.93
2018-11-20T22:07:58.538Z,28.60
2018-11-20T22:10:49.777Z,29.23
2018-11-20T22:13:46.323Z,28.97
2018-11-20T22:16:57.005Z,30.97
2018-11-20T22:19:49.597Z,29.47
2018-11-20T22:22:35.094Z,30.10
2018-11-20T22:25:16.865Z,31.27
2018-11-20T22:28:10.623Z,29.90
2018-11-20T22:30:56.372Z,28.47
2018-11-20T22:34:20.616Z,28.27
2018-11-20T22:37:23.024Z,28.10
2018-11-20T22:40:11.082Z,29.17
2018-11-20T22:42:57.152Z,29.30
2018-11-20T22:45:45.666Z,29.73
2018-11-20T22:48:31.616Z,29.47
2018-11-20T22:51:25.206Z,30.37
2018-11-20T22:54:18.795Z,30.13
2018-11-20T22:57:12.315Z,30.83
2018-11-20T22:59:59.496Z,30.27
2018-11-20T23:03:07.686Z,30.13
2018-11-20T23:05:52.788Z,28.93
2018-11-20T23:08:21.444Z,28.20
2018-11-20T23:10:51.141Z,30.63
2018-11-20T23:13:23.170Z,29.90
2018-11-20T23:15:52.007Z,29.00
2018-11-20T23:18:20.894Z,27.93
2018-11-20T23:20:49.479Z,28.80
2018-11-20T23:23:28.004Z,28.60
2018-11-20T23:25:57.030Z,28.70
2018-11-20T23:28:27.365Z,29.27
2018-11-20T23:30:55.703Z,30.03
2018-11-20T23:33:27.899Z,31.73
2018-11-20T23:35:56.828Z,28.13
2018-11-20T23:38:26.015Z,29.67
2018-11-20T23:40:54.633Z,31.57
2018-11-20T23:43:31.237Z,28.00
2018-11-20T23:46:00.104Z,28.37
2018-11-20T23:48:29.305Z,28.23
2018-11-20T23:50:57.956Z,28.50
2018-11-20T23:53:28.480Z,28.90
2018-11-20T23:56:00.267Z,28.67
2018-11-20T23:58:29.339Z,29.53
